sensor_id;sensor_type;location;lat;lon;timestamp;pressure;altitude;pressure_sealevel;temperature;humidity
60697;BME280;46536;54.376;19.858;2022-07-29T00:02:08;102308.14;;;14.44;61.53
60697;BME280;46536;54.376;19.858;2022-07-29T00:05:15;102304.17;;;14.41;61.71
60697;BME280;46536;54.376;19.858;2022-07-29T00:14:43;102303.58;;;14.30;62.31
60697;BME280;46536;54.376;19.858;2022-07-29T00:17:47;102303.34;;;14.27;62.46
60697;BME280;46536;54.376;19.858;2022-07-29T00:24:15;102297.09;;;14.17;62.28
60697;BME280;46536;54.376;19.858;2022-07-29T00:27:27;102297.70;;;14.14;62.21
60697;BME280;46536;54.376;19.858;2022-07-29T00:30:09;102301.05;;;14.13;61.93
60697;BME280;46536;54.376;19.858;2022-07-29T00:32:49;102303.79;;;14.09;61.94
60697;BME280;46536;54.376;19.858;2022-07-29T00:35:37;102306.98;;;14.07;61.70
60697;BME280;46536;54.376;19.858;2022-07-29T00:38:58;102308.45;;;14.04;61.52
60697;BME280;46536;54.376;19.858;2022-07-29T00:47:58;102306.29;;;13.93;62.08
60697;BME280;46536;54.376;19.858;2022-07-29T00:50:46;102307.56;;;13.92;62.02
60697;BME280;46536;54.376;19.858;2022-07-29T00:53:32;102303.83;;;13.86;62.18
60697;BME280;46536;54.376;19.858;2022-07-29T00:56:40;102308.64;;;13.82;62.41
60697;BME280;46536;54.376;19.858;2022-07-29T01:02:35;102305.88;;;13.75;61.81
60697;BME280;46536;54.376;19.858;2022-07-29T01:05:41;102305.10;;;13.70;61.43
60697;BME280;46536;54.376;19.858;2022-07-29T01:08:45;102306.56;;;13.67;61.21
60697;BME280;46536;54.376;19.858;2022-07-29T01:13:01;102307.57;;;13.62;61.23
60697;BME280;46536;54.376;19.858;2022-07-29T01:15:49;102309.48;;;13.56;62.07
60697;BME280;46536;54.376;19.858;2022-07-29T01:18:54;102308.03;;;13.49;62.47
60697;BME280;46536;54.376;19.858;2022-07-29T01:22:07;102310.03;;;13.46;62.27
60697;BME280;46536;54.376;19.858;2022-07-29T01:28:31;102312.64;;;13.40;61.93
60697;BME280;46536;54.376;19.858;2022-07-29T01:31:24;102315.31;;;13.37;62.18
60697;BME280;46536;54.376;19.858;2022-07-29T01:34:16;102320.29;;;13.33;62.71
60697;BME280;46536;54.376;19.858;2022-07-29T01:43:59;102320.82;;;13.25;62.78
60697;BME280;46536;54.376;19.858;2022-07-29T01:47:02;102316.02;;;13.21;62.85
60697;BME280;46536;54.376;19.858;2022-07-29T01:50:17;102317.27;;;13.18;62.94
60697;BME280;46536;54.376;19.858;2022-07-29T01:56:37;102318.56;;;13.14;62.56
60697;BME280;46536;54.376;19.858;2022-07-29T02:00:06;102316.92;;;13.10;62.63
60697;BME280;46536;54.376;19.858;2022-07-29T02:03:02;102313.88;;;13.06;62.37
60697;BME280;46536;54.376;19.858;2022-07-29T02:05:55;102315.89;;;13.00;61.96
60697;BME280;46536;54.376;19.858;2022-07-29T02:08:56;102314.95;;;12.95;61.87
60697;BME280;46536;54.376;19.858;2022-07-29T02:11:54;102317.17;;;12.90;61.87
60697;BME280;46536;54.376;19.858;2022-07-29T02:14:42;102311.71;;;12.83;62.18
60697;BME280;46536;54.376;19.858;2022-07-29T02:17:45;102318.42;;;12.79;62.52
60697;BME280;46536;54.376;19.858;2022-07-29T02:20:39;102318.33;;;12.75;62.73
60697;BME280;46536;54.376;19.858;2022-07-29T02:23:27;102312.48;;;12.72;62.85
60697;BME280;46536;54.376;19.858;2022-07-29T02:27:04;102312.89;;;12.69;62.85
60697;BME280;46536;54.376;19.858;2022-07-29T02:30:19;102312.23;;;12.66;62.65
60697;BME280;46536;54.376;19.858;2022-07-29T02:33:08;102314.90;;;12.63;62.93
60697;BME280;46536;54.376;19.858;2022-07-29T02:36:28;102312.16;;;12.61;63.45
60697;BME280;46536;54.376;19.858;2022-07-29T02:39:52;102316.05;;;12.59;63.86
60697;BME280;46536;54.376;19.858;2022-07-29T02:42:41;102313.77;;;12.59;63.86
60697;BME280;46536;54.376;19.858;2022-07-29T02:48:58;102312.90;;;12.58;63.24
60697;BME280;46536;54.376;19.858;2022-07-29T02:51:58;102312.45;;;12.55;63.47
60697;BME280;46536;54.376;19.858;2022-07-29T02:54:58;102314.09;;;12.52;63.69
60697;BME280;46536;54.376;19.858;2022-07-29T02:57:38;102315.33;;;12.51;63.66
60697;BME280;46536;54.376;19.858;2022-07-29T03:00:46;102318.82;;;12.51;63.56
60697;BME280;46536;54.376;19.858;2022-07-29T03:03:47;102320.56;;;12.50;63.57
60697;BME280;46536;54.376;19.858;2022-07-29T03:06:48;102320.77;;;12.47;63.53
60697;BME280;46536;54.376;19.858;2022-07-29T03:10:05;102323.63;;;12.44;63.13
60697;BME280;46536;54.376;19.858;2022-07-29T03:12:54;102323.71;;;12.40;63.00
60697;BME280;46536;54.376;19.858;2022-07-29T03:15:45;102326.22;;;12.37;62.96
60697;BME280;46536;54.376;19.858;2022-07-29T03:18:41;102329.08;;;12.33;63.12
60697;BME280;46536;54.376;19.858;2022-07-29T03:27:27;102330.86;;;12.29;64.05
60697;BME280;46536;54.376;19.858;2022-07-29T03:30:27;102333.50;;;12.28;64.36
60697;BME280;46536;54.376;19.858;2022-07-29T03:33:26;102331.65;;;12.25;64.67
60697;BME280;46536;54.376;19.858;2022-07-29T03:36:33;102328.56;;;12.22;65.24
60697;BME280;46536;54.376;19.858;2022-07-29T03:39:21;102332.71;;;12.24;65.01
60697;BME280;46536;54.376;19.858;2022-07-29T03:42:00;102333.88;;;12.27;64.92
60697;BME280;46536;54.376;19.858;2022-07-29T03:44:54;102333.32;;;12.29;64.81
60697;BME280;46536;54.376;19.858;2022-07-29T03:48:31;102337.46;;;12.30;64.88
60697;BME280;46536;54.376;19.858;2022-07-29T03:51:21;102339.36;;;12.31;65.21
60697;BME280;46536;54.376;19.858;2022-07-29T03:54:15;102331.84;;;12.34;65.54
60697;BME280;46536;54.376;19.858;2022-07-29T04:00:21;102329.42;;;12.43;66.21
60697;BME280;46536;54.376;19.858;2022-07-29T04:03:27;102329.13;;;12.49;66.34
60697;BME280;46536;54.376;19.858;2022-07-29T04:06:25;102327.29;;;12.54;67.01
60697;BME280;46536;54.376;19.858;2022-07-29T04:12:25;102331.73;;;12.68;67.86
60697;BME280;46536;54.376;19.858;2022-07-29T04:15:18;102331.05;;;12.75;68.37
60697;BME280;46536;54.376;19.858;2022-07-29T04:18:11;102335.98;;;12.82;69.03
60697;BME280;46536;54.376;19.858;2022-07-29T04:20:55;102335.34;;;12.88;69.58
60697;BME280;46536;54.376;19.858;2022-07-29T04:26:47;102339.70;;;13.05;70.09
60697;BME280;46536;54.376;19.858;2022-07-29T04:29:34;102342.52;;;13.12;70.51
60697;BME280;46536;54.376;19.858;2022-07-29T04:32:59;102342.91;;;13.20;70.93
60697;BME280;46536;54.376;19.858;2022-07-29T04:39:06;102334.01;;;13.44;71.28
60697;BME280;46536;54.376;19.858;2022-07-29T04:42:19;102341.27;;;13.54;71.53
60697;BME280;46536;54.376;19.858;2022-07-29T04:45:17;102344.91;;;13.63;71.57
60697;BME280;46536;54.376;19.858;2022-07-29T04:48:06;102342.91;;;13.74;71.68
60697;BME280;46536;54.376;19.858;2022-07-29T04:54:08;102345.59;;;13.94;71.83
60697;BME280;46536;54.376;19.858;2022-07-29T05:00:14;102343.60;;;14.10;71.99
60697;BME280;46536;54.376;19.858;2022-07-29T05:03:03;102344.64;;;14.24;72.08
60697;BME280;46536;54.376;19.858;2022-07-29T05:09:42;102341.68;;;14.51;71.73
60697;BME280;46536;54.376;19.858;2022-07-29T05:15:25;102345.30;;;14.79;70.96
60697;BME280;46536;54.376;19.858;2022-07-29T05:18:15;102347.92;;;14.91;70.93
60697;BME280;46536;54.376;19.858;2022-07-29T05:21:10;102344.73;;;15.04;70.91
60697;BME280;46536;54.376;19.858;2022-07-29T05:24:11;102345.38;;;15.18;70.70
60697;BME280;46536;54.376;19.858;2022-07-29T05:30:58;102352.85;;;15.49;70.65
60697;BME280;46536;54.376;19.858;2022-07-29T05:34:13;102353.85;;;15.62;70.25
60697;BME280;46536;54.376;19.858;2022-07-29T05:37:09;102358.60;;;15.73;70.51
60697;BME280;46536;54.376;19.858;2022-07-29T05:39:59;102354.80;;;15.83;70.38
60697;BME280;46536;54.376;19.858;2022-07-29T05:42:52;102355.44;;;15.94;70.22
60697;BME280;46536;54.376;19.858;2022-07-29T05:46:03;102357.48;;;16.07;70.41
60697;BME280;46536;54.376;19.858;2022-07-29T05:48:43;102358.52;;;16.18;70.50
60697;BME280;46536;54.376;19.858;2022-07-29T05:51:44;102359.14;;;16.25;70.49
60697;BME280;46536;54.376;19.858;2022-07-29T05:58:24;102346.48;;;16.47;70.21
60697;BME280;46536;54.376;19.858;2022-07-29T06:01:26;102345.14;;;16.60;70.36
60697;BME280;46536;54.376;19.858;2022-07-29T06:04:19;102343.37;;;16.71;70.10
60697;BME280;46536;54.376;19.858;2022-07-29T06:07:44;102348.14;;;16.85;70.04
60697;BME280;46536;54.376;19.858;2022-07-29T06:10:35;102341.14;;;16.98;70.02
60697;BME280;46536;54.376;19.858;2022-07-29T06:13:39;102344.55;;;17.10;69.72
60697;BME280;46536;54.376;19.858;2022-07-29T06:16:58;102345.45;;;17.24;69.49
60697;BME280;46536;54.376;19.858;2022-07-29T06:20:20;102353.02;;;17.37;69.02
60697;BME280;46536;54.376;19.858;2022-07-29T06:23:18;102351.11;;;17.49;68.87
60697;BME280;46536;54.376;19.858;2022-07-29T06:26:22;102354.41;;;17.59;68.89
60697;BME280;46536;54.376;19.858;2022-07-29T06:30:06;102351.00;;;17.70;68.61
60697;BME280;46536;54.376;19.858;2022-07-29T06:32:51;102349.58;;;17.84;68.59
60697;BME280;46536;54.376;19.858;2022-07-29T06:36:27;102349.36;;;17.97;68.46
60697;BME280;46536;54.376;19.858;2022-07-29T06:39:57;102351.08;;;18.11;67.65
60697;BME280;46536;54.376;19.858;2022-07-29T06:43:32;102347.90;;;18.24;66.98
60697;BME280;46536;54.376;19.858;2022-07-29T06:47:04;102348.45;;;18.35;67.30
60697;BME280;46536;54.376;19.858;2022-07-29T06:57:55;102342.50;;;18.72;64.60
60697;BME280;46536;54.376;19.858;2022-07-29T07:01:01;102342.63;;;18.81;64.35
60697;BME280;46536;54.376;19.858;2022-07-29T07:08:20;102337.13;;;19.01;63.63
60697;BME280;46536;54.376;19.858;2022-07-29T07:15:16;102335.56;;;19.19;62.18
60697;BME280;46536;54.376;19.858;2022-07-29T07:22:06;102337.86;;;19.38;61.81
60697;BME280;46536;54.376;19.858;2022-07-29T07:24:46;102334.59;;;19.44;60.65
60697;BME280;46536;54.376;19.858;2022-07-29T07:28:29;102340.50;;;19.45;59.43
60697;BME280;46536;54.376;19.858;2022-07-29T07:35:13;102345.80;;;19.60;58.57
60697;BME280;46536;54.376;19.858;2022-07-29T07:38:20;102342.65;;;19.67;57.21
60697;BME280;46536;54.376;19.858;2022-07-29T07:41:33;102341.18;;;19.75;56.75
60697;BME280;46536;54.376;19.858;2022-07-29T07:51:41;102341.20;;;20.03;56.11
60697;BME280;46536;54.376;19.858;2022-07-29T08:01:01;102332.84;;;20.29;57.35
60697;BME280;46536;54.376;19.858;2022-07-29T08:04:20;102327.79;;;20.41;56.20
60697;BME280;46536;54.376;19.858;2022-07-29T08:11:15;102336.83;;;20.61;55.42
60697;BME280;46536;54.376;19.858;2022-07-29T08:14:45;102336.84;;;20.74;55.42
60697;BME280;46536;54.376;19.858;2022-07-29T08:21:00;102339.27;;;20.88;54.79
60697;BME280;46536;54.376;19.858;2022-07-29T08:24:22;102334.40;;;20.93;53.66
60697;BME280;46536;54.376;19.858;2022-07-29T08:31:12;102330.36;;;21.05;53.92
60697;BME280;46536;54.376;19.858;2022-07-29T08:34:29;102332.50;;;21.11;53.36
60697;BME280;46536;54.376;19.858;2022-07-29T08:43:55;102330.02;;;21.28;52.30
60697;BME280;46536;54.376;19.858;2022-07-29T08:47:30;102332.61;;;21.35;51.98
60697;BME280;46536;54.376;19.858;2022-07-29T09:00:33;102344.77;;;21.80;51.22
60697;BME280;46536;54.376;19.858;2022-07-29T09:03:59;102347.23;;;21.92;50.98
60697;BME280;46536;54.376;19.858;2022-07-29T09:10:35;102353.20;;;22.32;49.83
60697;BME280;46536;54.376;19.858;2022-07-29T09:13:42;102345.21;;;22.47;48.34
60697;BME280;46536;54.376;19.858;2022-07-29T09:17:50;102344.69;;;22.64;47.16
60697;BME280;46536;54.376;19.858;2022-07-29T09:31:22;102346.73;;;23.74;46.95
60697;BME280;46536;54.376;19.858;2022-07-29T09:41:14;102339.77;;;24.84;45.27
60697;BME280;46536;54.376;19.858;2022-07-29T09:44:11;102330.14;;;25.14;44.13
60697;BME280;46536;54.376;19.858;2022-07-29T09:47:09;102330.55;;;25.23;43.59
60697;BME280;46536;54.376;19.858;2022-07-29T09:49:59;102330.10;;;25.39;43.55
60697;BME280;46536;54.376;19.858;2022-07-29T09:53:00;102328.94;;;25.62;43.34
60697;BME280;46536;54.376;19.858;2022-07-29T09:55:56;102329.77;;;25.86;42.64
60697;BME280;46536;54.376;19.858;2022-07-29T09:59:13;102320.20;;;26.09;41.07
60697;BME280;46536;54.376;19.858;2022-07-29T10:02:13;102321.80;;;26.30;40.66
60697;BME280;46536;54.376;19.858;2022-07-29T10:08:24;102315.99;;;26.38;38.56
60697;BME280;46536;54.376;19.858;2022-07-29T10:14:47;102311.42;;;26.37;36.43
60697;BME280;46536;54.376;19.858;2022-07-29T10:17:41;102311.94;;;26.38;36.87
60697;BME280;46536;54.376;19.858;2022-07-29T10:27:08;102315.79;;;26.66;37.71
60697;BME280;46536;54.376;19.858;2022-07-29T10:29:54;102308.92;;;26.80;37.79
60697;BME280;46536;54.376;19.858;2022-07-29T10:43:33;102306.65;;;27.56;36.74
60697;BME280;46536;54.376;19.858;2022-07-29T10:46:24;102305.00;;;27.56;36.10
60697;BME280;46536;54.376;19.858;2022-07-29T10:49:33;102303.91;;;27.55;37.32
60697;BME280;46536;54.376;19.858;2022-07-29T10:52:20;102305.06;;;27.67;37.87
60697;BME280;46536;54.376;19.858;2022-07-29T10:55:06;102303.02;;;27.78;37.63
60697;BME280;46536;54.376;19.858;2022-07-29T10:58:46;102305.09;;;27.90;37.38
60697;BME280;46536;54.376;19.858;2022-07-29T11:01:47;102303.08;;;28.09;37.28
60697;BME280;46536;54.376;19.858;2022-07-29T11:08:31;102293.38;;;28.24;37.50
60697;BME280;46536;54.376;19.858;2022-07-29T11:11:33;102292.64;;;28.35;38.40
60697;BME280;46536;54.376;19.858;2022-07-29T11:14:58;102287.52;;;28.44;37.70
60697;BME280;46536;54.376;19.858;2022-07-29T11:20:51;102287.33;;;28.47;36.60
60697;BME280;46536;54.376;19.858;2022-07-29T11:23:53;102287.06;;;28.46;36.92
60697;BME280;46536;54.376;19.858;2022-07-29T11:27:23;102284.30;;;28.51;36.83
60697;BME280;46536;54.376;19.858;2022-07-29T11:30:51;102289.23;;;28.60;37.65
60697;BME280;46536;54.376;19.858;2022-07-29T11:33:37;102287.39;;;28.68;37.88
60697;BME280;46536;54.376;19.858;2022-07-29T11:43:48;102281.17;;;29.04;37.06
60697;BME280;46536;54.376;19.858;2022-07-29T11:49:55;102281.56;;;29.02;38.22
60697;BME280;46536;54.376;19.858;2022-07-29T11:52:55;102286.73;;;29.14;37.92
60697;BME280;46536;54.376;19.858;2022-07-29T11:55:50;102281.21;;;29.29;37.35
60697;BME280;46536;54.376;19.858;2022-07-29T11:58:34;102282.25;;;29.37;37.00
60697;BME280;46536;54.376;19.858;2022-07-29T12:01:27;102283.55;;;29.37;36.48
60697;BME280;46536;54.376;19.858;2022-07-29T12:04:38;102280.45;;;29.37;36.36
60697;BME280;46536;54.376;19.858;2022-07-29T12:07:47;102275.98;;;29.37;36.00
60697;BME280;46536;54.376;19.858;2022-07-29T12:10:33;102271.88;;;29.33;36.54
60697;BME280;46536;54.376;19.858;2022-07-29T12:13:16;102277.22;;;29.37;37.30
60697;BME280;46536;54.376;19.858;2022-07-29T12:16:14;102270.99;;;29.41;35.98
60697;BME280;46536;54.376;19.858;2022-07-29T12:19:18;102270.55;;;29.42;36.36
60697;BME280;46536;54.376;19.858;2022-07-29T12:22:34;102265.66;;;29.36;35.57
60697;BME280;46536;54.376;19.858;2022-07-29T12:25:27;102264.52;;;29.28;36.16
60697;BME280;46536;54.376;19.858;2022-07-29T12:28:39;102263.95;;;29.24;36.53
60697;BME280;46536;54.376;19.858;2022-07-29T12:35:04;102260.37;;;29.12;36.58
60697;BME280;46536;54.376;19.858;2022-07-29T12:38:35;102257.63;;;29.15;36.76
60697;BME280;46536;54.376;19.858;2022-07-29T12:41:03;102261.58;;;29.23;36.61
60697;BME280;46536;54.376;19.858;2022-07-29T12:43:59;102255.90;;;29.28;36.55
60697;BME280;46536;54.376;19.858;2022-07-29T12:46:43;102254.98;;;29.28;36.16
60697;BME280;46536;54.376;19.858;2022-07-29T12:49:29;102253.05;;;29.28;36.24
60697;BME280;46536;54.376;19.858;2022-07-29T12:52:44;102258.51;;;29.30;36.79
60697;BME280;46536;54.376;19.858;2022-07-29T12:55:51;102255.66;;;29.44;36.87
60697;BME280;46536;54.376;19.858;2022-07-29T12:58:55;102252.04;;;29.53;36.09
60697;BME280;46536;54.376;19.858;2022-07-29T13:01:36;102250.20;;;29.53;35.91
60697;BME280;46536;54.376;19.858;2022-07-29T13:04:32;102249.30;;;29.53;36.28
60697;BME280;46536;54.376;19.858;2022-07-29T13:07:11;102245.67;;;29.54;35.48
60697;BME280;46536;54.376;19.858;2022-07-29T13:09:53;102248.75;;;29.43;35.65
60697;BME280;46536;54.376;19.858;2022-07-29T13:12:38;102244.75;;;29.36;35.37
60697;BME280;46536;54.376;19.858;2022-07-29T13:15:20;102245.02;;;29.27;35.41
60697;BME280;46536;54.376;19.858;2022-07-29T13:18:01;102243.59;;;29.10;35.41
60697;BME280;46536;54.376;19.858;2022-07-29T13:20:43;102240.10;;;28.87;35.30
60697;BME280;46536;54.376;19.858;2022-07-29T13:23:37;102241.57;;;28.69;36.14
60697;BME280;46536;54.376;19.858;2022-07-29T13:26:39;102242.93;;;28.64;36.04
60697;BME280;46536;54.376;19.858;2022-07-29T13:29:52;102232.26;;;28.51;35.71
60697;BME280;46536;54.376;19.858;2022-07-29T13:36:09;102229.50;;;28.32;37.08
60697;BME280;46536;54.376;19.858;2022-07-29T13:39:08;102232.54;;;28.36;36.88
60697;BME280;46536;54.376;19.858;2022-07-29T13:41:43;102226.95;;;28.36;36.45
60697;BME280;46536;54.376;19.858;2022-07-29T13:47:41;102221.02;;;28.24;36.12
60697;BME280;46536;54.376;19.858;2022-07-29T13:50:49;102218.20;;;28.13;36.54
60697;BME280;46536;54.376;19.858;2022-07-29T13:54:03;102215.45;;;28.14;36.49
60697;BME280;46536;54.376;19.858;2022-07-29T13:56:45;102214.84;;;28.11;36.73
60697;BME280;46536;54.376;19.858;2022-07-29T13:59:20;102212.79;;;28.08;36.68
60697;BME280;46536;54.376;19.858;2022-07-29T14:02:24;102215.92;;;27.97;36.26
60697;BME280;46536;54.376;19.858;2022-07-29T14:05:17;102217.77;;;27.88;36.72
60697;BME280;46536;54.376;19.858;2022-07-29T14:08:23;102210.36;;;27.84;36.55
60697;BME280;46536;54.376;19.858;2022-07-29T14:11:24;102215.84;;;27.87;36.67
60697;BME280;46536;54.376;19.858;2022-07-29T14:14:21;102218.68;;;27.91;36.92
60697;BME280;46536;54.376;19.858;2022-07-29T14:16:57;102219.42;;;27.96;36.52
60697;BME280;46536;54.376;19.858;2022-07-29T14:23:11;102212.36;;;27.94;36.41
60697;BME280;46536;54.376;19.858;2022-07-29T14:26:34;102213.59;;;27.87;36.95
60697;BME280;46536;54.376;19.858;2022-07-29T14:29:40;102207.81;;;27.75;37.24
60697;BME280;46536;54.376;19.858;2022-07-29T14:32:32;102212.45;;;27.62;37.35
60697;BME280;46536;54.376;19.858;2022-07-29T14:35:33;102216.77;;;27.51;38.00
60697;BME280;46536;54.376;19.858;2022-07-29T14:38:31;102211.54;;;27.39;37.81
60697;BME280;46536;54.376;19.858;2022-07-29T14:41:24;102212.29;;;27.30;38.12
60697;BME280;46536;54.376;19.858;2022-07-29T14:44:40;102208.67;;;27.28;37.99
60697;BME280;46536;54.376;19.858;2022-07-29T14:47:48;102208.60;;;27.34;38.13
60697;BME280;46536;54.376;19.858;2022-07-29T14:50:40;102208.12;;;27.31;38.22
60697;BME280;46536;54.376;19.858;2022-07-29T14:53:39;102210.22;;;27.27;38.47
60697;BME280;46536;54.376;19.858;2022-07-29T14:56:22;102213.74;;;27.17;38.31
60697;BME280;46536;54.376;19.858;2022-07-29T14:59:42;102216.02;;;27.14;38.53
60697;BME280;46536;54.376;19.858;2022-07-29T15:02:20;102210.10;;;27.12;38.43
60697;BME280;46536;54.376;19.858;2022-07-29T15:12:23;102207.41;;;26.81;38.72
60697;BME280;46536;54.376;19.858;2022-07-29T15:15:02;102203.88;;;26.67;38.71
60697;BME280;46536;54.376;19.858;2022-07-29T15:17:43;102196.33;;;26.53;38.88
60697;BME280;46536;54.376;19.858;2022-07-29T15:26:18;102199.05;;;26.30;40.37
60697;BME280;46536;54.376;19.858;2022-07-29T15:32:06;102197.86;;;26.20;40.63
60697;BME280;46536;54.376;19.858;2022-07-29T15:35:07;102201.04;;;26.18;40.88
60697;BME280;46536;54.376;19.858;2022-07-29T15:41:26;102200.34;;;26.16;40.68
60697;BME280;46536;54.376;19.858;2022-07-29T15:44:10;102195.30;;;26.10;40.91
60697;BME280;46536;54.376;19.858;2022-07-29T15:47:00;102192.33;;;26.02;40.77
60697;BME280;46536;54.376;19.858;2022-07-29T15:50:18;102191.79;;;25.94;41.17
60697;BME280;46536;54.376;19.858;2022-07-29T15:53:00;102189.65;;;25.96;41.65
60697;BME280;46536;54.376;19.858;2022-07-29T15:55:51;102184.83;;;26.03;41.29
60697;BME280;46536;54.376;19.858;2022-07-29T15:58:31;102179.13;;;26.12;41.17
60697;BME280;46536;54.376;19.858;2022-07-29T16:01:19;102172.44;;;26.20;40.78
60697;BME280;46536;54.376;19.858;2022-07-29T16:04:11;102168.44;;;26.28;40.69
60697;BME280;46536;54.376;19.858;2022-07-29T16:07:34;102163.59;;;26.39;40.69
60697;BME280;46536;54.376;19.858;2022-07-29T16:10:24;102159.77;;;26.54;40.47
60697;BME280;46536;54.376;19.858;2022-07-29T16:13:10;102156.12;;;26.69;40.03
60697;BME280;46536;54.376;19.858;2022-07-29T16:16:32;102153.89;;;26.86;39.81
60697;BME280;46536;54.376;19.858;2022-07-29T16:19:25;102153.30;;;27.00;39.07
60697;BME280;46536;54.376;19.858;2022-07-29T16:22:08;102153.07;;;27.11;39.36
60697;BME280;46536;54.376;19.858;2022-07-29T16:25:22;102152.30;;;27.24;39.10
60697;BME280;46536;54.376;19.858;2022-07-29T16:28:35;102153.39;;;27.35;38.80
60697;BME280;46536;54.376;19.858;2022-07-29T16:31:22;102152.49;;;27.43;38.49
60697;BME280;46536;54.376;19.858;2022-07-29T16:34:08;102147.83;;;27.51;38.51
60697;BME280;46536;54.376;19.858;2022-07-29T16:37:00;102144.64;;;27.64;38.72
60697;BME280;46536;54.376;19.858;2022-07-29T16:39:44;102148.46;;;27.76;38.67
60697;BME280;46536;54.376;19.858;2022-07-29T16:42:24;102145.66;;;27.83;37.84
60697;BME280;46536;54.376;19.858;2022-07-29T16:48:59;102148.87;;;28.02;37.40
60697;BME280;46536;54.376;19.858;2022-07-29T16:51:43;102141.23;;;28.05;37.26
60697;BME280;46536;54.376;19.858;2022-07-29T16:54:26;102145.94;;;28.04;37.16
60697;BME280;46536;54.376;19.858;2022-07-29T16:57:06;102140.06;;;28.02;36.87
60697;BME280;46536;54.376;19.858;2022-07-29T16:59:50;102139.52;;;27.96;36.82
60697;BME280;46536;54.376;19.858;2022-07-29T17:02:31;102138.17;;;27.91;36.99
60697;BME280;46536;54.376;19.858;2022-07-29T17:05:29;102141.91;;;27.83;36.86
60697;BME280;46536;54.376;19.858;2022-07-29T17:08:27;102142.05;;;27.71;36.75
60697;BME280;46536;54.376;19.858;2022-07-29T17:11:13;102140.01;;;27.57;36.99
60697;BME280;46536;54.376;19.858;2022-07-29T17:14:08;102140.16;;;27.37;36.78
60697;BME280;46536;54.376;19.858;2022-07-29T17:17:17;102142.81;;;27.14;37.02
60697;BME280;46536;54.376;19.858;2022-07-29T17:20:32;102141.02;;;26.82;37.24
60697;BME280;46536;54.376;19.858;2022-07-29T17:23:08;102141.88;;;26.58;37.54
60697;BME280;46536;54.376;19.858;2022-07-29T17:26:09;102140.54;;;26.33;37.88
60697;BME280;46536;54.376;19.858;2022-07-29T17:32:08;102137.88;;;25.77;38.42
60697;BME280;46536;54.376;19.858;2022-07-29T17:35:20;102143.41;;;25.52;38.96
60697;BME280;46536;54.376;19.858;2022-07-29T17:41:27;102150.96;;;25.15;39.67
60697;BME280;46536;54.376;19.858;2022-07-29T17:44:53;102149.25;;;25.01;40.22
60697;BME280;46536;54.376;19.858;2022-07-29T17:47:37;102148.91;;;24.88;40.38
60697;BME280;46536;54.376;19.858;2022-07-29T17:50:42;102149.14;;;24.73;40.78
60697;BME280;46536;54.376;19.858;2022-07-29T17:56:37;102146.23;;;24.42;41.44
60697;BME280;46536;54.376;19.858;2022-07-29T18:00:03;102149.70;;;24.31;41.64
60697;BME280;46536;54.376;19.858;2022-07-29T18:03:29;102155.98;;;24.18;42.02
60697;BME280;46536;54.376;19.858;2022-07-29T18:06:53;102152.84;;;24.04;42.33
60697;BME280;46536;54.376;19.858;2022-07-29T18:10:24;102159.98;;;23.93;42.76
60697;BME280;46536;54.376;19.858;2022-07-29T18:16:32;102171.84;;;23.71;43.08
60697;BME280;46536;54.376;19.858;2022-07-29T18:19:02;102169.48;;;23.61;43.30
60697;BME280;46536;54.376;19.858;2022-07-29T18:21:37;102172.51;;;23.53;43.60
60697;BME280;46536;54.376;19.858;2022-07-29T18:24:41;102172.58;;;23.42;43.59
60697;BME280;46536;54.376;19.858;2022-07-29T18:27:22;102173.42;;;23.29;43.81
60697;BME280;46536;54.376;19.858;2022-07-29T18:29:57;102175.11;;;23.20;44.16
60697;BME280;46536;54.376;19.858;2022-07-29T18:32:37;102177.48;;;23.11;44.48
60697;BME280;46536;54.376;19.858;2022-07-29T18:35:12;102174.95;;;23.01;44.58
60697;BME280;46536;54.376;19.858;2022-07-29T18:38:04;102170.89;;;22.90;44.67
60697;BME280;46536;54.376;19.858;2022-07-29T18:40:37;102173.39;;;22.81;44.80
60697;BME280;46536;54.376;19.858;2022-07-29T18:43:22;102172.40;;;22.72;45.04
60697;BME280;46536;54.376;19.858;2022-07-29T18:45:55;102173.31;;;22.60;45.20
60697;BME280;46536;54.376;19.858;2022-07-29T18:48:30;102172.95;;;22.52;45.40
60697;BME280;46536;54.376;19.858;2022-07-29T18:51:24;102175.60;;;22.44;45.50
60697;BME280;46536;54.376;19.858;2022-07-29T18:53:56;102175.73;;;22.34;45.70
60697;BME280;46536;54.376;19.858;2022-07-29T18:56:46;102172.96;;;22.24;45.82
60697;BME280;46536;54.376;19.858;2022-07-29T18:59:25;102173.22;;;22.14;46.08
60697;BME280;46536;54.376;19.858;2022-07-29T19:01:56;102171.94;;;22.03;46.32
60697;BME280;46536;54.376;19.858;2022-07-29T19:04:35;102170.83;;;21.92;46.41
60697;BME280;46536;54.376;19.858;2022-07-29T19:07:24;102167.05;;;21.82;46.64
60697;BME280;46536;54.376;19.858;2022-07-29T19:09:58;102170.36;;;21.71;47.15
60697;BME280;46536;54.376;19.858;2022-07-29T19:12:36;102171.08;;;21.62;47.46
60697;BME280;46536;54.376;19.858;2022-07-29T19:15:24;102168.61;;;21.53;47.62
60697;BME280;46536;54.376;19.858;2022-07-29T19:17:54;102165.22;;;21.45;47.89
60697;BME280;46536;54.376;19.858;2022-07-29T19:20:35;102168.35;;;21.36;47.97
60697;BME280;46536;54.376;19.858;2022-07-29T19:23:10;102173.73;;;21.29;48.07
60697;BME280;46536;54.376;19.858;2022-07-29T19:25:53;102170.58;;;21.22;48.12
60697;BME280;46536;54.376;19.858;2022-07-29T19:28:41;102172.66;;;21.17;48.22
60697;BME280;46536;54.376;19.858;2022-07-29T19:31:47;102171.13;;;21.10;48.42